sensor_id;sensor_type;location;lat;lon;timestamp;P1;durP1;ratioP1;P2;durP2;ratioP2
16407;SDS011;8313;49.894;8.084;2023-02-28T00:00:10;2.40;;;1.60;;
16407;SDS011;8313;49.894;8.084;2023-02-28T00:02:38;2.30;;;1.87;;
16407;SDS011;8313;49.894;8.084;2023-02-28T00:05:08;2.07;;;1.87;;
16407;SDS011;8313;49.894;8.084;2023-02-28T00:07:35;1.73;;;1.63;;
16407;SDS011;8313;49.894;8.084;2023-02-28T00:10:00;1.80;;;1.70;;
16407;SDS011;8313;49.894;8.084;2023-02-28T00:12:27;1.30;;;1.20;;
16407;SDS011;8313;49.894;8.084;2023-02-28T00:14:53;4.47;;;1.70;;
16407;SDS011;8313;49.894;8.084;2023-02-28T00:17:19;1.77;;;1.30;;
16407;SDS011;8313;49.894;8.084;2023-02-28T00:19:49;2.43;;;2.23;;
16407;SDS011;8313;49.894;8.084;2023-02-28T00:22:17;2.50;;;1.70;;
16407;SDS011;8313;49.894;8.084;2023-02-28T00:24:44;2.43;;;1.30;;
16407;SDS011;8313;49.894;8.084;2023-02-28T00:27:10;2.10;;;1.90;;
16407;SDS011;8313;49.894;8.084;2023-02-28T00:29:36;1.53;;;1.43;;
16407;SDS011;8313;49.894;8.084;2023-02-28T00:32:02;1.67;;;1.40;;
16407;SDS011;8313;49.894;8.084;2023-02-28T00:34:29;2.17;;;1.60;;
16407;SDS011;8313;49.894;8.084;2023-02-28T00:36:55;1.27;;;1.20;;
16407;SDS011;8313;49.894;8.084;2023-02-28T00:39:21;1.90;;;1.53;;
16407;SDS011;8313;49.894;8.084;2023-02-28T00:41:47;1.50;;;1.40;;
16407;SDS011;8313;49.894;8.084;2023-02-28T00:44:13;4.03;;;2.00;;
16407;SDS011;8313;49.894;8.084;2023-02-28T00:46:38;1.30;;;1.20;;
16407;SDS011;8313;49.894;8.084;2023-02-28T00:49:04;1.60;;;1.50;;
16407;SDS011;8313;49.894;8.084;2023-02-28T00:51:30;2.33;;;1.13;;
16407;SDS011;8313;49.894;8.084;2023-02-28T00:53:56;1.13;;;1.07;;
16407;SDS011;8313;49.894;8.084;2023-02-28T00:56:22;2.10;;;1.40;;
16407;SDS011;8313;49.894;8.084;2023-02-28T00:58:48;1.77;;;1.60;;
16407;SDS011;8313;49.894;8.084;2023-02-28T01:01:14;2.50;;;1.67;;
16407;SDS011;8313;49.894;8.084;2023-02-28T01:03:39;2.20;;;1.57;;
16407;SDS011;8313;49.894;8.084;2023-02-28T01:06:05;1.70;;;1.60;;
16407;SDS011;8313;49.894;8.084;2023-02-28T01:08:31;2.47;;;1.80;;
16407;SDS011;8313;49.894;8.084;2023-02-28T01:10:57;1.53;;;1.43;;
16407;SDS011;8313;49.894;8.084;2023-02-28T01:13:22;3.57;;;2.10;;
16407;SDS011;8313;49.894;8.084;2023-02-28T01:15:52;2.60;;;1.73;;
16407;SDS011;8313;49.894;8.084;2023-02-28T01:18:21;2.87;;;1.83;;
16407;SDS011;8313;49.894;8.084;2023-02-28T01:20:47;2.07;;;1.50;;
16407;SDS011;8313;49.894;8.084;2023-02-28T01:23:14;3.60;;;2.30;;
16407;SDS011;8313;49.894;8.084;2023-02-28T01:25:40;2.70;;;1.90;;
16407;SDS011;8313;49.894;8.084;2023-02-28T01:28:06;2.40;;;1.70;;
16407;SDS011;8313;49.894;8.084;2023-02-28T01:30:32;2.60;;;2.20;;
16407;SDS011;8313;49.894;8.084;2023-02-28T01:32:58;2.70;;;1.80;;
16407;SDS011;8313;49.894;8.084;2023-02-28T01:35:24;2.00;;;1.80;;
16407;SDS011;8313;49.894;8.084;2023-02-28T01:37:50;2.27;;;2.07;;
16407;SDS011;8313;49.894;8.084;2023-02-28T01:40:15;1.93;;;1.80;;
16407;SDS011;8313;49.894;8.084;2023-02-28T01:42:41;5.27;;;3.13;;
16407;SDS011;8313;49.894;8.084;2023-02-28T01:45:21;9.27;;;2.90;;
16407;SDS011;8313;49.894;8.084;2023-02-28T01:47:48;7.07;;;3.50;;
16407;SDS011;8313;49.894;8.084;2023-02-28T01:50:22;4.80;;;2.70;;
16407;SDS011;8313;49.894;8.084;2023-02-28T01:52:51;4.53;;;2.40;;
16407;SDS011;8313;49.894;8.084;2023-02-28T01:55:22;4.77;;;3.00;;
16407;SDS011;8313;49.894;8.084;2023-02-28T01:57:50;4.23;;;2.77;;
16407;SDS011;8313;49.894;8.084;2023-02-28T02:00:20;2.77;;;2.50;;
16407;SDS011;8313;49.894;8.084;2023-02-28T02:02:50;5.00;;;2.43;;
16407;SDS011;8313;49.894;8.084;2023-02-28T02:05:20;2.67;;;2.43;;
16407;SDS011;8313;49.894;8.084;2023-02-28T02:07:48;3.03;;;2.37;;
16407;SDS011;8313;49.894;8.084;2023-02-28T02:10:18;4.33;;;2.60;;
16407;SDS011;8313;49.894;8.084;2023-02-28T02:37:37;6.10;;;3.13;;
16407;SDS011;8313;49.894;8.084;2023-02-28T02:40:14;4.30;;;2.80;;
16407;SDS011;8313;49.894;8.084;2023-02-28T02:45:32;3.70;;;2.37;;
16407;SDS011;8313;49.894;8.084;2023-02-28T02:48:04;2.97;;;2.33;;
16407;SDS011;8313;49.894;8.084;2023-02-28T02:50:38;5.30;;;2.80;;
16407;SDS011;8313;49.894;8.084;2023-02-28T02:53:08;3.27;;;2.47;;
16407;SDS011;8313;49.894;8.084;2023-02-28T02:55:37;3.60;;;2.70;;
16407;SDS011;8313;49.894;8.084;2023-02-28T02:58:16;4.53;;;2.43;;
16407;SDS011;8313;49.894;8.084;2023-02-28T03:00:50;4.20;;;2.63;;
16407;SDS011;8313;49.894;8.084;2023-02-28T03:03:22;5.83;;;3.27;;
16407;SDS011;8313;49.894;8.084;2023-02-28T03:05:55;3.30;;;2.20;;
16407;SDS011;8313;49.894;8.084;2023-02-28T03:08:23;4.93;;;3.50;;
16407;SDS011;8313;49.894;8.084;2023-02-28T03:10:50;2.87;;;2.43;;
16407;SDS011;8313;49.894;8.084;2023-02-28T03:22:36;4.00;;;3.00;;
16407;SDS011;8313;49.894;8.084;2023-02-28T03:27:30;4.00;;;2.83;;
16407;SDS011;8313;49.894;8.084;2023-02-28T03:30:10;3.43;;;2.90;;
16407;SDS011;8313;49.894;8.084;2023-02-28T03:35:22;3.07;;;2.40;;
16407;SDS011;8313;49.894;8.084;2023-02-28T03:37:52;3.23;;;2.90;;
16407;SDS011;8313;49.894;8.084;2023-02-28T03:40:27;3.40;;;2.83;;
16407;SDS011;8313;49.894;8.084;2023-02-28T03:42:59;5.10;;;2.70;;
16407;SDS011;8313;49.894;8.084;2023-02-28T03:45:28;3.10;;;2.17;;
16407;SDS011;8313;49.894;8.084;2023-02-28T03:50:34;3.67;;;1.97;;
16407;SDS011;8313;49.894;8.084;2023-02-28T03:53:02;3.63;;;2.50;;
16407;SDS011;8313;49.894;8.084;2023-02-28T03:55:53;6.00;;;2.80;;
16407;SDS011;8313;49.894;8.084;2023-02-28T04:01:08;2.40;;;1.90;;
16407;SDS011;8313;49.894;8.084;2023-02-28T04:03:52;3.10;;;2.60;;
16407;SDS011;8313;49.894;8.084;2023-02-28T04:06:19;3.40;;;2.80;;
16407;SDS011;8313;49.894;8.084;2023-02-28T04:08:46;2.50;;;2.30;;
16407;SDS011;8313;49.894;8.084;2023-02-28T04:11:23;2.80;;;2.40;;
16407;SDS011;8313;49.894;8.084;2023-02-28T04:13:50;3.57;;;2.87;;
16407;SDS011;8313;49.894;8.084;2023-02-28T04:16:16;2.80;;;2.23;;
16407;SDS011;8313;49.894;8.084;2023-02-28T04:18:42;2.40;;;1.97;;
16407;SDS011;8313;49.894;8.084;2023-02-28T04:21:08;3.17;;;2.47;;
16407;SDS011;8313;49.894;8.084;2023-02-28T04:23:35;3.50;;;2.37;;
16407;SDS011;8313;49.894;8.084;2023-02-28T04:26:02;2.80;;;2.00;;
16407;SDS011;8313;49.894;8.084;2023-02-28T04:28:29;2.67;;;2.47;;
16407;SDS011;8313;49.894;8.084;2023-02-28T04:30:58;3.70;;;2.93;;
16407;SDS011;8313;49.894;8.084;2023-02-28T04:33:26;3.03;;;2.30;;
16407;SDS011;8313;49.894;8.084;2023-02-28T04:36:06;2.43;;;2.17;;
16407;SDS011;8313;49.894;8.084;2023-02-28T04:38:37;2.80;;;2.50;;
16407;SDS011;8313;49.894;8.084;2023-02-28T04:41:04;4.10;;;2.27;;
16407;SDS011;8313;49.894;8.084;2023-02-28T04:43:30;3.23;;;2.37;;
16407;SDS011;8313;49.894;8.084;2023-02-28T04:45:57;2.77;;;2.20;;
16407;SDS011;8313;49.894;8.084;2023-02-28T04:48:27;2.73;;;2.17;;
16407;SDS011;8313;49.894;8.084;2023-02-28T04:50:54;3.13;;;1.97;;
16407;SDS011;8313;49.894;8.084;2023-02-28T04:53:24;5.27;;;2.43;;
16407;SDS011;8313;49.894;8.084;2023-02-28T04:55:50;3.37;;;2.13;;
16407;SDS011;8313;49.894;8.084;2023-02-28T04:58:15;5.07;;;2.43;;
16407;SDS011;8313;49.894;8.084;2023-02-28T05:00:41;2.47;;;2.00;;
16407;SDS011;8313;49.894;8.084;2023-02-28T05:03:07;3.73;;;2.53;;
16407;SDS011;8313;49.894;8.084;2023-02-28T05:05:32;2.67;;;1.83;;
16407;SDS011;8313;49.894;8.084;2023-02-28T05:07:58;3.10;;;2.40;;
16407;SDS011;8313;49.894;8.084;2023-02-28T05:10:24;2.70;;;2.33;;
16407;SDS011;8313;49.894;8.084;2023-02-28T05:12:49;2.97;;;2.27;;
16407;SDS011;8313;49.894;8.084;2023-02-28T05:15:16;3.07;;;2.20;;
16407;SDS011;8313;49.894;8.084;2023-02-28T05:17:42;3.20;;;2.30;;
16407;SDS011;8313;49.894;8.084;2023-02-28T05:20:08;2.90;;;2.70;;
16407;SDS011;8313;49.894;8.084;2023-02-28T05:22:41;2.97;;;2.63;;
16407;SDS011;8313;49.894;8.084;2023-02-28T05:25:12;3.40;;;2.40;;
16407;SDS011;8313;49.894;8.084;2023-02-28T05:27:41;2.00;;;1.90;;
16407;SDS011;8313;49.894;8.084;2023-02-28T05:30:07;5.33;;;2.80;;
16407;SDS011;8313;49.894;8.084;2023-02-28T05:32:38;3.60;;;2.30;;
16407;SDS011;8313;49.894;8.084;2023-02-28T05:35:08;1.90;;;1.80;;
16407;SDS011;8313;49.894;8.084;2023-02-28T05:37:35;4.27;;;1.70;;
16407;SDS011;8313;49.894;8.084;2023-02-28T05:40:02;4.20;;;1.90;;
16407;SDS011;8313;49.894;8.084;2023-02-28T05:42:31;1.93;;;1.83;;
16407;SDS011;8313;49.894;8.084;2023-02-28T05:44:57;3.07;;;2.53;;
16407;SDS011;8313;49.894;8.084;2023-02-28T05:47:22;2.30;;;2.10;;
16407;SDS011;8313;49.894;8.084;2023-02-28T05:49:48;3.73;;;1.80;;
16407;SDS011;8313;49.894;8.084;2023-02-28T05:52:14;2.80;;;2.43;;
16407;SDS011;8313;49.894;8.084;2023-02-28T05:54:40;2.37;;;1.77;;
16407;SDS011;8313;49.894;8.084;2023-02-28T05:57:06;3.03;;;2.00;;
16407;SDS011;8313;49.894;8.084;2023-02-28T05:59:31;3.90;;;2.13;;
16407;SDS011;8313;49.894;8.084;2023-02-28T06:01:57;2.30;;;2.10;;
16407;SDS011;8313;49.894;8.084;2023-02-28T06:04:23;3.97;;;2.70;;
16407;SDS011;8313;49.894;8.084;2023-02-28T06:06:49;3.50;;;2.30;;
16407;SDS011;8313;49.894;8.084;2023-02-28T06:09:15;2.80;;;2.07;;
16407;SDS011;8313;49.894;8.084;2023-02-28T06:11:42;2.33;;;1.87;;
16407;SDS011;8313;49.894;8.084;2023-02-28T06:14:09;2.03;;;1.83;;
16407;SDS011;8313;49.894;8.084;2023-02-28T06:16:41;2.83;;;2.50;;
16407;SDS011;8313;49.894;8.084;2023-02-28T06:19:06;2.10;;;1.70;;
16407;SDS011;8313;49.894;8.084;2023-02-28T06:21:32;3.23;;;2.00;;
16407;SDS011;8313;49.894;8.084;2023-02-28T06:23:58;2.80;;;2.07;;
16407;SDS011;8313;49.894;8.084;2023-02-28T06:26:24;3.50;;;2.00;;
16407;SDS011;8313;49.894;8.084;2023-02-28T06:28:50;2.70;;;2.50;;
16407;SDS011;8313;49.894;8.084;2023-02-28T06:31:16;2.20;;;2.00;;
16407;SDS011;8313;49.894;8.084;2023-02-28T06:33:43;2.27;;;2.00;;
16407;SDS011;8313;49.894;8.084;2023-02-28T06:36:10;2.13;;;1.93;;
16407;SDS011;8313;49.894;8.084;2023-02-28T06:38:38;3.67;;;3.17;;
16407;SDS011;8313;49.894;8.084;2023-02-28T06:41:04;9.07;;;2.37;;
16407;SDS011;8313;49.894;8.084;2023-02-28T06:43:33;3.70;;;2.47;;
16407;SDS011;8313;49.894;8.084;2023-02-28T06:46:01;2.77;;;1.93;;
16407;SDS011;8313;49.894;8.084;2023-02-28T06:48:29;2.30;;;2.10;;
16407;SDS011;8313;49.894;8.084;2023-02-28T06:51:15;3.20;;;2.33;;
16407;SDS011;8313;49.894;8.084;2023-02-28T06:53:42;2.87;;;1.97;;
16407;SDS011;8313;49.894;8.084;2023-02-28T06:56:10;2.57;;;2.00;;
16407;SDS011;8313;49.894;8.084;2023-02-28T06:58:37;4.73;;;2.83;;
16407;SDS011;8313;49.894;8.084;2023-02-28T07:01:04;2.10;;;1.93;;
16407;SDS011;8313;49.894;8.084;2023-02-28T07:03:30;2.73;;;1.90;;
16407;SDS011;8313;49.894;8.084;2023-02-28T07:05:56;2.40;;;2.20;;
16407;SDS011;8313;49.894;8.084;2023-02-28T07:08:23;5.03;;;2.50;;
16407;SDS011;8313;49.894;8.084;2023-02-28T07:10:52;2.63;;;1.70;;
16407;SDS011;8313;49.894;8.084;2023-02-28T07:13:22;2.07;;;1.83;;
16407;SDS011;8313;49.894;8.084;2023-02-28T07:18:20;2.93;;;2.00;;
16407;SDS011;8313;49.894;8.084;2023-02-28T07:20:46;3.33;;;2.20;;
16407;SDS011;8313;49.894;8.084;2023-02-28T07:23:11;3.13;;;1.97;;
16407;SDS011;8313;49.894;8.084;2023-02-28T07:25:37;1.93;;;1.83;;
16407;SDS011;8313;49.894;8.084;2023-02-28T07:28:02;1.90;;;1.70;;
16407;SDS011;8313;49.894;8.084;2023-02-28T07:30:28;4.97;;;2.30;;
16407;SDS011;8313;49.894;8.084;2023-02-28T07:32:54;2.87;;;2.20;;
16407;SDS011;8313;49.894;8.084;2023-02-28T07:35:21;6.60;;;2.50;;
16407;SDS011;8313;49.894;8.084;2023-02-28T07:37:47;3.30;;;2.47;;
16407;SDS011;8313;49.894;8.084;2023-02-28T07:40:13;3.10;;;1.80;;
16407;SDS011;8313;49.894;8.084;2023-02-28T07:42:40;2.07;;;1.90;;
16407;SDS011;8313;49.894;8.084;2023-02-28T07:45:08;3.70;;;2.10;;
16407;SDS011;8313;49.894;8.084;2023-02-28T07:47:37;2.60;;;1.93;;
16407;SDS011;8313;49.894;8.084;2023-02-28T07:50:03;4.77;;;2.57;;
16407;SDS011;8313;49.894;8.084;2023-02-28T07:52:30;5.60;;;2.20;;
16407;SDS011;8313;49.894;8.084;2023-02-28T07:54:57;3.93;;;2.33;;
16407;SDS011;8313;49.894;8.084;2023-02-28T07:57:22;2.53;;;2.27;;
16407;SDS011;8313;49.894;8.084;2023-02-28T07:59:48;2.70;;;1.90;;
16407;SDS011;8313;49.894;8.084;2023-02-28T08:02:14;3.30;;;2.80;;
16407;SDS011;8313;49.894;8.084;2023-02-28T08:04:41;2.80;;;2.40;;
16407;SDS011;8313;49.894;8.084;2023-02-28T08:07:08;2.40;;;2.20;;
16407;SDS011;8313;49.894;8.084;2023-02-28T08:09:38;5.47;;;3.00;;
16407;SDS011;8313;49.894;8.084;2023-02-28T08:12:04;4.73;;;2.23;;
16407;SDS011;8313;49.894;8.084;2023-02-28T08:14:30;3.13;;;2.00;;
16407;SDS011;8313;49.894;8.084;2023-02-28T08:16:56;4.53;;;2.67;;
16407;SDS011;8313;49.894;8.084;2023-02-28T08:19:21;3.63;;;2.40;;
16407;SDS011;8313;49.894;8.084;2023-02-28T08:21:47;4.67;;;2.00;;
16407;SDS011;8313;49.894;8.084;2023-02-28T08:24:13;3.70;;;2.00;;
16407;SDS011;8313;49.894;8.084;2023-02-28T08:26:38;2.33;;;2.10;;
16407;SDS011;8313;49.894;8.084;2023-02-28T08:29:04;3.20;;;2.37;;
16407;SDS011;8313;49.894;8.084;2023-02-28T08:31:29;3.73;;;1.83;;
16407;SDS011;8313;49.894;8.084;2023-02-28T08:33:55;4.40;;;2.80;;
16407;SDS011;8313;49.894;8.084;2023-02-28T08:36:23;2.93;;;2.30;;
16407;SDS011;8313;49.894;8.084;2023-02-28T08:38:50;3.10;;;2.37;;
16407;SDS011;8313;49.894;8.084;2023-02-28T08:41:15;4.37;;;2.87;;
16407;SDS011;8313;49.894;8.084;2023-02-28T08:43:41;3.73;;;2.50;;
16407;SDS011;8313;49.894;8.084;2023-02-28T08:46:07;3.13;;;2.50;;
16407;SDS011;8313;49.894;8.084;2023-02-28T08:48:36;3.30;;;2.80;;
16407;SDS011;8313;49.894;8.084;2023-02-28T08:51:06;3.70;;;2.53;;
16407;SDS011;8313;49.894;8.084;2023-02-28T08:53:37;3.37;;;2.70;;
16407;SDS011;8313;49.894;8.084;2023-02-28T08:56:11;3.93;;;3.30;;
16407;SDS011;8313;49.894;8.084;2023-02-28T08:58:38;4.70;;;2.83;;
16407;SDS011;8313;49.894;8.084;2023-02-28T09:01:08;3.17;;;2.37;;
16407;SDS011;8313;49.894;8.084;2023-02-28T09:03:34;2.83;;;2.13;;
16407;SDS011;8313;49.894;8.084;2023-02-28T09:06:00;5.50;;;3.50;;
16407;SDS011;8313;49.894;8.084;2023-02-28T09:08:26;4.70;;;2.47;;
16407;SDS011;8313;49.894;8.084;2023-02-28T09:10:53;2.13;;;1.93;;
16407;SDS011;8313;49.894;8.084;2023-02-28T09:13:22;3.40;;;2.87;;
16407;SDS011;8313;49.894;8.084;2023-02-28T09:15:48;5.30;;;3.20;;
16407;SDS011;8313;49.894;8.084;2023-02-28T09:18:14;3.53;;;3.23;;
16407;SDS011;8313;49.894;8.084;2023-02-28T09:20:41;3.37;;;3.00;;
16407;SDS011;8313;49.894;8.084;2023-02-28T09:23:08;2.30;;;2.03;;
16407;SDS011;8313;49.894;8.084;2023-02-28T09:25:35;3.40;;;2.40;;
16407;SDS011;8313;49.894;8.084;2023-02-28T09:28:01;4.40;;;2.53;;
16407;SDS011;8313;49.894;8.084;2023-02-28T09:30:27;5.90;;;3.30;;
16407;SDS011;8313;49.894;8.084;2023-02-28T09:32:54;3.30;;;2.53;;
16407;SDS011;8313;49.894;8.084;2023-02-28T09:35:21;4.50;;;2.80;;
16407;SDS011;8313;49.894;8.084;2023-02-28T09:37:51;5.80;;;2.77;;
16407;SDS011;8313;49.894;8.084;2023-02-28T09:40:18;4.40;;;2.93;;
16407;SDS011;8313;49.894;8.084;2023-02-28T09:42:46;4.37;;;2.63;;
16407;SDS011;8313;49.894;8.084;2023-02-28T09:45:18;4.20;;;3.03;;
16407;SDS011;8313;49.894;8.084;2023-02-28T09:48:02;5.37;;;2.90;;
16407;SDS011;8313;49.894;8.084;2023-02-28T09:53:02;2.47;;;2.27;;
16407;SDS011;8313;49.894;8.084;2023-02-28T09:58:04;4.70;;;3.47;;
16407;SDS011;8313;49.894;8.084;2023-02-28T10:00:33;3.23;;;2.67;;
16407;SDS011;8313;49.894;8.084;2023-02-28T10:03:21;2.53;;;2.20;;
16407;SDS011;8313;49.894;8.084;2023-02-28T10:05:59;3.53;;;2.47;;
16407;SDS011;8313;49.894;8.084;2023-02-28T10:08:34;3.97;;;2.70;;
16407;SDS011;8313;49.894;8.084;2023-02-28T10:11:17;4.97;;;2.97;;
16407;SDS011;8313;49.894;8.084;2023-02-28T10:16:24;7.10;;;3.30;;
16407;SDS011;8313;49.894;8.084;2023-02-28T10:24:38;3.63;;;2.70;;
16407;SDS011;8313;49.894;8.084;2023-02-28T10:27:17;5.00;;;3.10;;
16407;SDS011;8313;49.894;8.084;2023-02-28T10:29:55;4.43;;;3.17;;
16407;SDS011;8313;49.894;8.084;2023-02-28T10:32:32;6.13;;;3.60;;
16407;SDS011;8313;49.894;8.084;2023-02-28T10:35:15;7.77;;;4.33;;
16407;SDS011;8313;49.894;8.084;2023-02-28T10:37:45;7.27;;;4.03;;
16407;SDS011;8313;49.894;8.084;2023-02-28T10:43:00;5.53;;;4.13;;
16407;SDS011;8313;49.894;8.084;2023-02-28T10:45:38;6.37;;;3.97;;
16407;SDS011;8313;49.894;8.084;2023-02-28T10:48:05;3.70;;;3.37;;
16407;SDS011;8313;49.894;8.084;2023-02-28T11:01:39;4.40;;;3.10;;
16407;SDS011;8313;49.894;8.084;2023-02-28T11:06:44;5.93;;;3.13;;
16407;SDS011;8313;49.894;8.084;2023-02-28T11:12:04;5.60;;;4.47;;
16407;SDS011;8313;49.894;8.084;2023-02-28T11:14:35;4.70;;;3.30;;
16407;SDS011;8313;49.894;8.084;2023-02-28T11:17:19;4.20;;;3.43;;
16407;SDS011;8313;49.894;8.084;2023-02-28T11:19:49;4.30;;;3.00;;
16407;SDS011;8313;49.894;8.084;2023-02-28T11:22:19;2.73;;;2.53;;
16407;SDS011;8313;49.894;8.084;2023-02-28T11:24:49;6.07;;;3.07;;
16407;SDS011;8313;49.894;8.084;2023-02-28T11:29:55;4.70;;;3.73;;
16407;SDS011;8313;49.894;8.084;2023-02-28T11:32:22;2.77;;;2.47;;
16407;SDS011;8313;49.894;8.084;2023-02-28T11:37:53;4.97;;;3.23;;
16407;SDS011;8313;49.894;8.084;2023-02-28T11:40:21;3.57;;;2.97;;
16407;SDS011;8313;49.894;8.084;2023-02-28T11:45:39;6.40;;;4.07;;
16407;SDS011;8313;49.894;8.084;2023-02-28T11:50:53;6.30;;;3.97;;
16407;SDS011;8313;49.894;8.084;2023-02-28T12:02:19;4.13;;;3.30;;
16407;SDS011;8313;49.894;8.084;2023-02-28T12:05:23;7.80;;;5.00;;
16407;SDS011;8313;49.894;8.084;2023-02-28T12:10:49;7.73;;;4.03;;
16407;SDS011;8313;49.894;8.084;2023-02-28T12:13:26;6.60;;;3.10;;
16407;SDS011;8313;49.894;8.084;2023-02-28T12:16:00;5.10;;;3.33;;
16407;SDS011;8313;49.894;8.084;2023-02-28T12:26:48;5.57;;;3.70;;
16407;SDS011;8313;49.894;8.084;2023-02-28T12:29:29;5.70;;;3.87;;
16407;SDS011;8313;49.894;8.084;2023-02-28T12:37:37;8.30;;;3.73;;
16407;SDS011;8313;49.894;8.084;2023-02-28T12:40:12;3.37;;;2.70;;
16407;SDS011;8313;49.894;8.084;2023-02-28T12:42:49;15.40;;;7.17;;
16407;SDS011;8313;49.894;8.084;2023-02-28T12:45:24;10.33;;;7.30;;
16407;SDS011;8313;49.894;8.084;2023-02-28T12:47:56;5.00;;;4.00;;
16407;SDS011;8313;49.894;8.084;2023-02-28T12:50:25;9.33;;;5.93;;
16407;SDS011;8313;49.894;8.084;2023-02-28T12:53:15;7.83;;;4.70;;
16407;SDS011;8313;49.894;8.084;2023-02-28T12:55:51;5.70;;;3.77;;
16407;SDS011;8313;49.894;8.084;2023-02-28T12:59:01;3.93;;;3.53;;
16407;SDS011;8313;49.894;8.084;2023-02-28T13:04:42;4.83;;;3.73;;
16407;SDS011;8313;49.894;8.084;2023-02-28T13:13:16;7.93;;;5.00;;
16407;SDS011;8313;49.894;8.084;2023-02-28T13:15:57;5.23;;;4.70;;
16407;SDS011;8313;49.894;8.084;2023-02-28T13:21:02;5.87;;;4.03;;
16407;SDS011;8313;49.894;8.084;2023-02-28T13:23:41;5.03;;;3.60;;
16407;SDS011;8313;49.894;8.084;2023-02-28T13:32:18;4.50;;;2.80;;
16407;SDS011;8313;49.894;8.084;2023-02-28T13:34:33;6.50;;;3.20;;
16407;SDS011;8313;49.894;8.084;2023-02-28T13:39:51;5.60;;;3.50;;
16407;SDS011;8313;49.894;8.084;2023-02-28T13:50:29;19.27;;;11.00;;
16407;SDS011;8313;49.894;8.084;2023-02-28T14:06:33;6.63;;;4.73;;
16407;SDS011;8313;49.894;8.084;2023-02-28T14:09:03;7.90;;;4.47;;
16407;SDS011;8313;49.894;8.084;2023-02-28T14:11:43;8.27;;;4.33;;
16407;SDS011;8313;49.894;8.084;2023-02-28T14:14:09;4.90;;;3.73;;
16407;SDS011;8313;49.894;8.084;2023-02-28T14:17:03;6.10;;;4.50;;
16407;SDS011;8313;49.894;8.084;2023-02-28T14:19:32;7.47;;;4.27;;
16407;SDS011;8313;49.894;8.084;2023-02-28T14:24:56;10.50;;;4.80;;
16407;SDS011;8313;49.894;8.084;2023-02-28T14:36:09;5.90;;;4.17;;
16407;SDS011;8313;49.894;8.084;2023-02-28T14:44:01;14.10;;;5.10;;
16407;SDS011;8313;49.894;8.084;2023-02-28T14:46:35;7.00;;;4.53;;
16407;SDS011;8313;49.894;8.084;2023-02-28T14:49:04;7.53;;;4.60;;
16407;SDS011;8313;49.894;8.084;2023-02-28T14:51:34;6.10;;;4.50;;
16407;SDS011;8313;49.894;8.084;2023-02-28T14:54:00;7.60;;;4.73;;
16407;SDS011;8313;49.894;8.084;2023-02-28T14:56:33;12.13;;;3.87;;
16407;SDS011;8313;49.894;8.084;2023-02-28T14:59:02;8.33;;;4.20;;
16407;SDS011;8313;49.894;8.084;2023-02-28T15:01:29;10.40;;;5.20;;
16407;SDS011;8313;49.894;8.084;2023-02-28T15:04:00;7.57;;;4.23;;
16407;SDS011;8313;49.894;8.084;2023-02-28T15:06:29;4.20;;;3.50;;
16407;SDS011;8313;49.894;8.084;2023-02-28T15:09:15;5.97;;;4.57;;
16407;SDS011;8313;49.894;8.084;2023-02-28T15:11:42;4.30;;;3.90;;
16407;SDS011;8313;49.894;8.084;2023-02-28T15:14:16;5.67;;;3.77;;
16407;SDS011;8313;49.894;8.084;2023-02-28T15:16:51;6.23;;;4.27;;
16407;SDS011;8313;49.894;8.084;2023-02-28T15:21:51;7.80;;;4.43;;
16407;SDS011;8313;49.894;8.084;2023-02-28T15:27:07;6.67;;;4.57;;
16407;SDS011;8313;49.894;8.084;2023-02-28T15:29:43;14.97;;;5.00;;
16407;SDS011;8313;49.894;8.084;2023-02-28T15:32:26;4.93;;;4.33;;
16407;SDS011;8313;49.894;8.084;2023-02-28T15:34:54;14.00;;;4.60;;
16407;SDS011;8313;49.894;8.084;2023-02-28T15:40:43;7.77;;;4.90;;
16407;SDS011;8313;49.894;8.084;2023-02-28T15:42:57;5.87;;;3.83;;
16407;SDS011;8313;49.894;8.084;2023-02-28T15:48:05;3.77;;;3.43;;
16407;SDS011;8313;49.894;8.084;2023-02-28T15:50:41;3.70;;;3.40;;
16407;SDS011;8313;49.894;8.084;2023-02-28T15:53:12;5.40;;;4.00;;
16407;SDS011;8313;49.894;8.084;2023-02-28T15:55:40;6.67;;;4.40;;
16407;SDS011;8313;49.894;8.084;2023-02-28T15:58:08;7.70;;;4.37;;
16407;SDS011;8313;49.894;8.084;2023-02-28T16:00:39;10.37;;;4.10;;
16407;SDS011;8313;49.894;8.084;2023-02-28T16:06:09;7.63;;;4.27;;
16407;SDS011;8313;49.894;8.084;2023-02-28T16:08:53;7.70;;;4.00;;
16407;SDS011;8313;49.894;8.084;2023-02-28T16:11:20;6.80;;;4.30;;
16407;SDS011;8313;49.894;8.084;2023-02-28T16:13:46;6.60;;;4.10;;
16407;SDS011;8313;49.894;8.084;2023-02-28T16:16:19;6.03;;;4.60;;
16407;SDS011;8313;49.894;8.084;2023-02-28T16:18:47;6.63;;;4.27;;
16407;SDS011;8313;49.894;8.084;2023-02-28T16:21:13;7.50;;;4.40;;
16407;SDS011;8313;49.894;8.084;2023-02-28T16:23:39;8.73;;;4.77;;
16407;SDS011;8313;49.894;8.084;2023-02-28T16:26:05;7.67;;;3.50;;
16407;SDS011;8313;49.894;8.084;2023-02-28T16:28:35;7.37;;;4.23;;
16407;SDS011;8313;49.894;8.084;2023-02-28T16:31:04;6.30;;;4.27;;
16407;SDS011;8313;49.894;8.084;2023-02-28T16:33:31;4.93;;;4.43;;
16407;SDS011;8313;49.894;8.084;2023-02-28T16:35:58;8.40;;;4.17;;
16407;SDS011;8313;49.894;8.084;2023-02-28T16:38:24;7.83;;;4.70;;
16407;SDS011;8313;49.894;8.084;2023-02-28T16:40:50;9.70;;;4.30;;
16407;SDS011;8313;49.894;8.084;2023-02-28T16:43:25;5.83;;;5.07;;
16407;SDS011;8313;49.894;8.084;2023-02-28T16:45:55;8.40;;;3.80;;
16407;SDS011;8313;49.894;8.084;2023-02-28T16:48:23;6.70;;;4.93;;
16407;SDS011;8313;49.894;8.084;2023-02-28T16:50:50;6.87;;;4.60;;
16407;SDS011;8313;49.894;8.084;2023-02-28T16:53:16;5.20;;;4.00;;
16407;SDS011;8313;49.894;8.084;2023-02-28T16:55:42;7.80;;;5.27;;
16407;SDS011;8313;49.894;8.084;2023-02-28T16:58:10;7.20;;;4.63;;
16407;SDS011;8313;49.894;8.084;2023-02-28T17:00:40;10.00;;;4.90;;
16407;SDS011;8313;49.894;8.084;2023-02-28T17:03:14;7.80;;;4.87;;
16407;SDS011;8313;49.894;8.084;2023-02-28T17:05:51;7.13;;;4.63;;
16407;SDS011;8313;49.894;8.084;2023-02-28T17:08:17;7.50;;;4.63;;
16407;SDS011;8313;49.894;8.084;2023-02-28T17:10:42;5.67;;;4.17;;
16407;SDS011;8313;49.894;8.084;2023-02-28T17:13:08;6.67;;;4.80;;
16407;SDS011;8313;49.894;8.084;2023-02-28T17:15:34;5.30;;;3.77;;
16407;SDS011;8313;49.894;8.084;2023-02-28T17:18:01;6.40;;;4.80;;
16407;SDS011;8313;49.894;8.084;2023-02-28T17:20:27;6.77;;;4.60;;
16407;SDS011;8313;49.894;8.084;2023-02-28T17:22:53;8.00;;;5.80;;
16407;SDS011;8313;49.894;8.084;2023-02-28T17:25:19;9.07;;;6.33;;
16407;SDS011;8313;49.894;8.084;2023-02-28T17:27:46;13.30;;;7.73;;
16407;SDS011;8313;49.894;8.084;2023-02-28T17:32:45;35.00;;;16.23;;
16407;SDS011;8313;49.894;8.084;2023-02-28T17:35:11;34.50;;;15.70;;
16407;SDS011;8313;49.894;8.084;2023-02-28T17:37:38;21.07;;;11.73;;
16407;SDS011;8313;49.894;8.084;2023-02-28T17:40:04;20.83;;;9.27;;
16407;SDS011;8313;49.894;8.084;2023-02-28T17:42:30;13.40;;;8.33;;
16407;SDS011;8313;49.894;8.084;2023-02-28T17:44:56;12.23;;;7.70;;
16407;SDS011;8313;49.894;8.084;2023-02-28T17:47:22;8.80;;;6.30;;
16407;SDS011;8313;49.894;8.084;2023-02-28T17:49:48;6.40;;;5.07;;
16407;SDS011;8313;49.894;8.084;2023-02-28T17:52:13;8.53;;;5.40;;
16407;SDS011;8313;49.894;8.084;2023-02-28T17:54:39;8.47;;;5.37;;
16407;SDS011;8313;49.894;8.084;2023-02-28T17:57:05;8.33;;;4.90;;
16407;SDS011;8313;49.894;8.084;2023-02-28T17:59:30;5.23;;;4.70;;
16407;SDS011;8313;49.894;8.084;2023-02-28T18:02:01;7.03;;;4.67;;
16407;SDS011;8313;49.894;8.084;2023-02-28T18:04:28;5.53;;;4.77;;
16407;SDS011;8313;49.894;8.084;2023-02-28T18:06:54;6.70;;;4.60;;
16407;SDS011;8313;49.894;8.084;2023-02-28T18:09:25;6.83;;;4.90;;
16407;SDS011;8313;49.894;8.084;2023-02-28T18:11:52;6.03;;;3.87;;
16407;SDS011;8313;49.894;8.084;2023-02-28T18:14:19;9.80;;;4.70;;
16407;SDS011;8313;49.894;8.084;2023-02-28T18:16:48;12.13;;;5.77;;
16407;SDS011;8313;49.894;8.084;2023-02-28T18:19:14;15.50;;;7.87;;
16407;SDS011;8313;49.894;8.084;2023-02-28T18:21:42;9.10;;;5.80;;
16407;SDS011;8313;49.894;8.084;2023-02-28T18:24:09;9.83;;;5.67;;
16407;SDS011;8313;49.894;8.084;2023-02-28T18:26:36;5.47;;;3.90;;